createdAt,value
2018-07-14T00:02:06.668Z,21.10
2018-07-14T00:04:37.460Z,21.10
2018-07-14T00:07:08.138Z,21.00
2018-07-14T00:09:39.092Z,21.00
2018-07-14T00:12:09.685Z,21.00
2018-07-14T00:14:40.456Z,21.00
2018-07-14T00:17:11.219Z,21.00
2018-07-14T00:19:41.824Z,21.00
2018-07-14T00:22:12.758Z,20.90
2018-07-14T00:24:43.501Z,21.00
2018-07-14T00:27:14.261Z,21.00
2018-07-14T00:29:45.074Z,21.10
2018-07-14T00:32:15.851Z,21.10
2018-07-14T00:34:46.488Z,21.20
2018-07-14T00:37:17.206Z,21.20
2018-07-14T00:39:47.793Z,21.20
2018-07-14T00:42:18.528Z,21.10
2018-07-14T00:44:49.414Z,21.10
2018-07-14T00:47:20.075Z,21.10
2018-07-14T00:49:50.680Z,21.10
2018-07-14T00:52:21.326Z,21.10
2018-07-14T00:54:51.853Z,21.10
2018-07-14T00:57:22.784Z,21.00
2018-07-14T00:59:53.619Z,20.90
2018-07-14T01:02:24.043Z,20.90
2018-07-14T01:04:54.793Z,20.80
2018-07-14T01:07:25.928Z,20.80
2018-07-14T01:09:56.684Z,20.80
2018-07-14T01:12:27.495Z,20.80
2018-07-14T01:14:58.137Z,20.80
2018-07-14T01:17:29.187Z,20.70
2018-07-14T01:20:00.162Z,20.70
2018-07-14T01:22:31.056Z,20.70
2018-07-14T01:25:01.888Z,20.60
2018-07-14T01:27:32.690Z,20.60
2018-07-14T01:30:03.343Z,20.60
2018-07-14T01:32:33.845Z,20.50
2018-07-14T01:35:04.575Z,20.50
2018-07-14T01:37:35.239Z,20.60
2018-07-14T01:40:06.949Z,20.50
2018-07-14T01:42:37.672Z,20.50
2018-07-14T01:45:08.247Z,20.50
2018-07-14T01:47:39.192Z,20.60
2018-07-14T01:50:09.783Z,20.50
2018-07-14T01:52:40.396Z,20.50
2018-07-14T01:55:11.811Z,20.40
2018-07-14T01:57:42.551Z,20.40
2018-07-14T02:00:13.450Z,20.40
2018-07-14T02:02:43.967Z,20.40
2018-07-14T02:05:14.927Z,20.30
2018-07-14T02:07:45.691Z,20.30
2018-07-14T02:10:16.313Z,20.40
2018-07-14T02:12:46.950Z,20.40
2018-07-14T02:15:18.318Z,20.40
2018-07-14T02:17:49.035Z,20.40
2018-07-14T02:20:19.779Z,20.50
2018-07-14T02:22:50.624Z,20.50
2018-07-14T02:25:21.702Z,20.50
2018-07-14T02:27:52.387Z,20.40
2018-07-14T02:30:23.220Z,20.40
2018-07-14T02:32:53.958Z,20.30
2018-07-14T02:35:24.609Z,20.30
2018-07-14T02:37:55.598Z,20.40
2018-07-14T03:38:31.955Z,20.30
2018-07-14T03:41:02.831Z,20.50
2018-07-14T03:43:33.474Z,20.60
2018-07-14T03:46:04.247Z,20.70
2018-07-14T03:48:35.040Z,20.80
2018-07-14T03:51:05.933Z,20.90
2018-07-14T03:53:36.719Z,21.00
2018-07-14T03:56:07.404Z,21.10
2018-07-14T03:58:38.019Z,21.10
2018-07-14T04:01:08.674Z,21.20
2018-07-14T04:03:39.277Z,21.40
2018-07-14T04:06:09.896Z,21.50
2018-07-14T04:08:40.600Z,21.50
2018-07-14T04:11:11.344Z,21.60
2018-07-14T04:13:41.885Z,21.60
2018-07-14T04:16:12.460Z,21.70
2018-07-14T04:18:43.091Z,21.70
2018-07-14T04:21:13.762Z,21.70
2018-07-14T04:23:44.389Z,21.80
2018-07-14T04:26:15.040Z,21.80
2018-07-14T04:28:45.773Z,21.90
2018-07-14T04:31:16.615Z,21.90
2018-07-14T04:33:47.130Z,22.10
2018-07-14T04:36:17.748Z,22.10
2018-07-14T04:38:48.653Z,22.20
2018-07-14T04:41:19.246Z,22.30
2018-07-14T04:43:49.932Z,22.40
2018-07-14T04:46:20.876Z,22.50
2018-07-14T04:48:51.875Z,22.70
2018-07-14T04:51:22.879Z,22.70
2018-07-14T04:56:23.824Z,22.80
2018-07-14T04:58:54.524Z,22.70
2018-07-14T05:01:25.462Z,22.70
2018-07-14T05:03:56.049Z,22.80
2018-07-14T05:06:26.783Z,22.90
2018-07-14T05:08:57.871Z,22.90
2018-07-14T05:11:28.565Z,22.90
2018-07-14T05:16:29.038Z,22.90
2018-07-14T05:18:59.625Z,22.90
2018-07-14T05:21:30.335Z,22.90
2018-07-14T05:24:00.827Z,23.00
2018-07-14T05:26:31.618Z,23.00
2018-07-14T05:29:02.213Z,23.10
2018-07-14T05:31:32.861Z,23.10
2018-07-14T05:34:03.667Z,23.20
2018-07-14T05:36:34.347Z,23.20
2018-07-14T05:39:05.992Z,23.40
2018-07-14T05:41:36.531Z,23.50
2018-07-14T05:44:07.274Z,23.70
2018-07-14T05:46:38.139Z,23.80
2018-07-14T05:51:38.765Z,24.00
2018-07-14T05:56:39.763Z,24.20
2018-07-14T05:59:10.385Z,24.10
2018-07-14T06:01:41.156Z,24.20
2018-07-14T06:04:12.163Z,24.40
2018-07-14T06:06:43.005Z,24.50
2018-07-14T06:09:13.815Z,24.70
2018-07-14T06:11:44.581Z,24.90
2018-07-14T06:14:15.265Z,25.20
2018-07-14T06:16:45.965Z,25.40
2018-07-14T06:19:16.631Z,25.40
2018-07-14T06:21:47.509Z,25.50
2018-07-14T06:24:18.234Z,25.80
2018-07-14T06:26:48.838Z,26.20
2018-07-14T06:29:19.635Z,26.40
2018-07-14T06:31:50.285Z,26.70
2018-07-14T06:34:21.005Z,26.90
2018-07-14T06:36:51.796Z,26.90
2018-07-14T06:39:22.387Z,27.10
2018-07-14T06:41:53.311Z,27.40
2018-07-14T06:44:23.987Z,27.50
2018-07-14T06:46:54.734Z,27.90
2018-07-14T06:49:25.699Z,28.20
2018-07-14T06:51:56.406Z,28.30
2018-07-14T06:54:27.554Z,28.50
2018-07-14T06:56:58.214Z,28.70
2018-07-14T06:59:28.763Z,28.90
2018-07-14T07:01:59.591Z,29.00
2018-07-14T07:04:30.621Z,29.10
2018-07-14T07:07:01.359Z,29.30
2018-07-14T07:09:32.397Z,29.50
2018-07-14T07:12:03.031Z,29.50
2018-07-14T07:14:34.063Z,29.80
2018-07-14T07:17:05.426Z,29.90
2018-07-14T07:19:36.285Z,30.10
2018-07-14T07:28:21.356Z,30.60
2018-07-14T07:31:07.214Z,30.70
2018-07-14T07:36:26.718Z,31.10
2018-07-14T07:38:58.642Z,30.60
2018-07-14T07:41:31.412Z,30.60
2018-07-14T07:44:08.756Z,30.80
2018-07-14T07:46:40.868Z,30.80
2018-07-14T07:49:12.879Z,31.00
2018-07-14T07:51:44.817Z,31.00
2018-07-14T07:59:18.551Z,30.90
2018-07-14T08:01:50.500Z,31.00
2018-07-14T08:04:22.935Z,30.80
2018-07-14T08:06:55.857Z,30.90
2018-07-14T08:09:29.025Z,31.10
2018-07-14T08:12:01.549Z,31.30
2018-07-14T08:14:34.480Z,31.30
2018-07-14T08:17:06.685Z,31.40
2018-07-14T08:19:38.768Z,31.10
2018-07-14T08:22:10.928Z,31.50
2018-07-14T08:24:43.534Z,31.70
2018-07-14T08:27:16.163Z,31.70
2018-07-14T08:29:48.332Z,31.50
2018-07-14T08:32:21.224Z,31.80
2018-07-14T08:34:53.434Z,31.70
2018-07-14T08:37:30.828Z,31.50
2018-07-14T08:40:03.325Z,31.60
2018-07-14T08:42:36.352Z,32.10
2018-07-14T08:45:08.526Z,32.50
2018-07-14T08:47:40.879Z,32.60
2018-07-14T08:52:45.105Z,33.00
2018-07-14T08:55:17.366Z,32.90
2018-07-14T08:57:49.575Z,32.00
2018-07-14T09:00:22.888Z,32.30
2018-07-14T09:02:55.315Z,32.50
2018-07-14T09:05:27.684Z,32.80
2018-07-14T09:08:00.180Z,33.20
2018-07-14T09:10:32.335Z,32.80
2018-07-14T09:13:04.927Z,32.70
2018-07-14T09:15:37.261Z,32.10
2018-07-14T09:18:10.118Z,31.80
2018-07-14T09:20:42.485Z,31.40
2018-07-14T09:23:19.830Z,31.30
2018-07-14T09:25:54.164Z,31.30
2018-07-14T09:28:26.688Z,30.80
2018-07-14T09:31:00.611Z,30.30
2018-07-14T09:33:33.177Z,29.90
2018-07-14T09:36:05.482Z,29.60
2018-07-14T09:41:09.258Z,29.20
2018-07-14T09:43:41.441Z,28.90
2018-07-14T09:46:13.873Z,28.60
2018-07-14T09:48:46.328Z,28.50
2018-07-14T09:53:49.595Z,28.50
2018-07-14T09:56:21.782Z,28.40
2018-07-14T09:58:54.847Z,28.40
2018-07-14T10:01:27.313Z,28.40
2018-07-14T10:04:00.442Z,28.60
2018-07-14T10:06:33.798Z,29.10
2018-07-14T10:09:06.787Z,29.90
2018-07-14T10:11:45.601Z,30.40
2018-07-14T10:14:18.238Z,30.90
2018-07-14T10:16:50.260Z,30.90
2018-07-14T10:19:23.861Z,31.20
2018-07-14T10:21:56.556Z,31.50
2018-07-14T10:27:01.368Z,32.00
2018-07-14T10:29:51.890Z,32.30
2018-07-14T10:35:04.860Z,31.70
2018-07-14T10:37:37.551Z,31.80
2018-07-14T10:40:10.574Z,31.80
2018-07-14T10:42:43.368Z,31.80
2018-07-14T10:45:16.200Z,32.10
2018-07-14T10:47:48.561Z,32.30
2018-07-14T10:50:22.423Z,32.50
2018-07-14T10:52:55.177Z,32.70
2018-07-14T10:55:27.395Z,32.30
2018-07-14T10:58:00.179Z,32.30
2018-07-14T11:00:32.451Z,32.60
2018-07-14T11:05:36.051Z,33.10
2018-07-14T11:08:07.968Z,33.30
2018-07-14T11:15:47.524Z,32.50
2018-07-14T11:18:20.675Z,32.90
2018-07-14T11:20:54.220Z,33.00
2018-07-14T11:23:26.760Z,33.50
2018-07-14T11:25:59.595Z,33.70
2018-07-14T11:28:31.858Z,33.30
2018-07-14T11:31:04.941Z,33.10
2018-07-14T11:33:37.528Z,33.00
2018-07-14T11:36:10.445Z,32.80
2018-07-14T11:38:42.542Z,32.70
2018-07-14T11:41:14.993Z,32.60
2018-07-14T11:43:47.875Z,32.10
2018-07-14T11:46:20.704Z,32.50
2018-07-14T11:48:53.068Z,32.90
2018-07-14T11:51:25.313Z,32.30
2018-07-14T11:53:57.496Z,32.30
2018-07-14T11:56:31.124Z,32.50
2018-07-14T11:59:04.053Z,32.70
2018-07-14T12:01:36.220Z,32.70
2018-07-14T12:04:08.255Z,32.50
2018-07-14T12:09:11.518Z,31.50
2018-07-14T12:11:44.528Z,32.00
2018-07-14T12:14:16.662Z,32.70
2018-07-14T12:16:48.950Z,32.30
2018-07-14T12:19:21.128Z,32.40
2018-07-14T12:21:53.471Z,32.80
2018-07-14T12:26:56.924Z,33.50
2018-07-14T12:32:01.343Z,33.50
2018-07-14T12:34:33.283Z,33.40
2018-07-14T12:37:05.643Z,33.30
2018-07-14T12:39:38.551Z,32.70
2018-07-14T12:42:10.741Z,32.10
2018-07-14T12:47:14.490Z,32.10
2018-07-14T12:50:00.902Z,32.10
2018-07-14T12:52:34.715Z,31.50
2018-07-14T12:55:07.104Z,31.10
2018-07-14T12:57:39.254Z,30.60
2018-07-14T13:00:11.399Z,30.70
2018-07-14T13:02:44.431Z,30.80
2018-07-14T13:05:16.867Z,30.60
2018-07-14T13:07:49.691Z,30.70
2018-07-14T13:12:53.224Z,30.70
2018-07-14T13:15:26.201Z,30.80
2018-07-14T13:17:58.604Z,30.80
2018-07-14T13:20:33.033Z,31.10
2018-07-14T13:23:05.125Z,31.00
2018-07-14T13:25:37.275Z,30.60
2018-07-14T13:28:09.764Z,30.30
2018-07-14T13:30:42.806Z,30.10
2018-07-14T13:33:15.132Z,29.90
2018-07-14T13:35:47.183Z,29.80
2018-07-14T13:40:50.116Z,29.80
2018-07-14T13:43:22.536Z,29.80
2018-07-14T13:45:55.975Z,30.00
2018-07-14T13:48:29.915Z,30.50
2018-07-14T13:51:02.291Z,30.60
2018-07-14T13:56:05.389Z,30.00
2018-07-14T13:58:37.652Z,29.60
2018-07-14T14:01:09.760Z,29.60
2018-07-14T14:06:12.703Z,30.10
2018-07-14T14:08:45.619Z,30.20
2018-07-14T14:13:49.184Z,29.90
2018-07-14T14:16:21.800Z,29.40
2018-07-14T14:18:56.954Z,29.30
2018-07-14T14:21:29.964Z,29.40
2018-07-14T14:24:02.142Z,29.10
2018-07-14T14:26:34.400Z,29.10
2018-07-14T14:29:07.832Z,29.00
2018-07-14T14:31:40.587Z,28.80
2018-07-14T14:34:12.690Z,28.70
2018-07-14T14:36:44.979Z,28.70
2018-07-14T14:39:17.495Z,28.50
2018-07-14T14:41:49.320Z,28.40
2018-07-14T14:44:21.725Z,28.40
2018-07-14T14:46:53.916Z,28.50
2018-07-14T14:49:26.399Z,28.60
2018-07-14T14:54:31.019Z,29.90
2018-07-14T14:57:03.207Z,30.50
2018-07-14T14:59:35.418Z,30.40
2018-07-14T15:02:08.239Z,30.20
2018-07-14T15:04:40.804Z,29.80
2018-07-14T15:07:13.856Z,29.60
2018-07-14T15:09:46.108Z,29.30
2018-07-14T15:12:18.081Z,29.00
2018-07-14T15:14:50.151Z,28.90
2018-07-14T15:17:23.311Z,29.60
2018-07-14T15:19:55.802Z,30.30
2018-07-14T15:22:29.107Z,30.80
2018-07-14T15:25:02.561Z,31.00
2018-07-14T15:32:37.781Z,30.80
2018-07-14T15:35:10.472Z,31.30
2018-07-14T15:37:42.567Z,31.30
2018-07-14T15:40:14.715Z,31.10
2018-07-14T15:42:46.860Z,31.00
2018-07-14T15:45:19.024Z,31.40
2018-07-14T15:47:51.170Z,32.00
2018-07-14T15:50:23.729Z,31.70
2018-07-14T15:52:55.940Z,31.40
2018-07-14T15:55:27.957Z,31.10
2018-07-14T15:58:00.131Z,30.60
2018-07-14T16:03:03.531Z,29.80
2018-07-14T16:08:06.997Z,29.10
2018-07-14T16:10:39.394Z,29.50
2018-07-14T16:13:11.504Z,30.50
2018-07-14T16:15:44.792Z,30.50
2018-07-14T16:18:17.534Z,31.20
2018-07-14T16:20:50.000Z,31.60
2018-07-14T16:23:22.016Z,31.80
2018-07-14T16:25:54.354Z,31.80
2018-07-14T16:28:26.601Z,31.70
2018-07-14T16:30:58.716Z,32.00
2018-07-14T16:33:31.319Z,32.10
2018-07-14T16:36:04.279Z,30.90
2018-07-14T16:38:36.638Z,30.20
2018-07-14T16:41:09.912Z,29.60
2018-07-14T16:43:51.695Z,29.30
2018-07-14T16:46:26.665Z,28.80
2018-07-14T16:48:59.488Z,28.60
2018-07-14T16:51:32.093Z,28.30
2018-07-14T16:54:04.991Z,28.10
2018-07-14T16:56:37.215Z,28.00
2018-07-14T16:59:10.068Z,27.80
2018-07-14T17:01:42.339Z,27.60
2018-07-14T17:04:15.320Z,27.50
2018-07-14T17:06:47.387Z,27.40
2018-07-14T17:09:20.574Z,27.30
2018-07-14T17:11:52.753Z,27.30
2018-07-14T17:14:24.912Z,27.30
2018-07-14T17:16:57.112Z,27.10
2018-07-14T17:19:34.338Z,27.10
2018-07-14T17:22:06.796Z,27.00
2018-07-14T17:24:38.875Z,26.90
2018-07-14T17:27:11.387Z,26.80
2018-07-14T17:29:43.616Z,26.70
2018-07-14T17:32:15.803Z,26.70
2018-07-14T17:34:48.076Z,26.60
2018-07-14T17:37:20.615Z,26.50
2018-07-14T17:39:52.880Z,26.40
2018-07-14T17:42:25.103Z,26.40
2018-07-14T17:44:57.986Z,26.30
2018-07-14T17:47:30.255Z,26.30
2018-07-14T17:50:02.955Z,26.20
2018-07-14T17:52:35.969Z,26.20
2018-07-14T17:55:13.412Z,26.20
2018-07-14T17:57:49.373Z,26.20
2018-07-14T18:00:22.476Z,26.10
2018-07-14T18:02:56.575Z,26.00
2018-07-14T18:05:28.960Z,26.00
2018-07-14T18:08:01.215Z,26.00
2018-07-14T18:10:34.032Z,25.90
2018-07-14T18:13:07.034Z,25.80
2018-07-14T18:15:44.172Z,25.80
2018-07-14T18:18:16.238Z,25.80
2018-07-14T18:20:49.169Z,25.80
2018-07-14T18:23:21.327Z,25.70
2018-07-14T18:25:54.328Z,25.70
2018-07-14T18:28:27.699Z,25.60
2018-07-14T18:30:59.896Z,25.50
2018-07-14T18:33:32.172Z,25.40
2018-07-14T18:36:06.326Z,25.30
2018-07-14T18:38:39.051Z,25.20
2018-07-14T18:41:11.791Z,25.20
2018-07-14T18:46:19.442Z,25.10
2018-07-14T18:48:52.111Z,25.00
2018-07-14T18:51:24.908Z,25.00
2018-07-14T18:53:57.587Z,24.90
2018-07-14T18:56:30.536Z,24.90
2018-07-14T18:59:04.483Z,24.80
2018-07-14T19:01:36.621Z,24.70
2018-07-14T19:04:10.579Z,24.70
2018-07-14T19:06:44.265Z,24.70
2018-07-14T19:09:16.609Z,24.60
2018-07-14T19:11:48.784Z,24.60
2018-07-14T19:14:21.295Z,24.50
2018-07-14T19:16:53.479Z,24.50
2018-07-14T19:19:27.104Z,24.50
2018-07-14T19:21:59.333Z,24.50
2018-07-14T19:24:32.502Z,24.50
2018-07-14T19:27:04.607Z,24.40
2018-07-14T19:29:37.114Z,24.40
2018-07-14T19:34:40.976Z,24.30
2018-07-14T19:37:13.109Z,24.30
2018-07-14T19:42:16.881Z,24.30
2018-07-14T19:44:49.800Z,24.30
2018-07-14T19:47:23.563Z,24.30
2018-07-14T19:49:55.828Z,24.30
2018-07-14T19:52:28.218Z,24.20
2018-07-14T19:55:00.834Z,24.20
2018-07-14T19:57:34.591Z,24.20
2018-07-14T20:00:06.695Z,24.20
2018-07-14T20:05:10.533Z,24.10
2018-07-14T20:07:45.356Z,24.10
2018-07-14T20:10:18.620Z,24.10
2018-07-14T20:15:23.475Z,24.10
2018-07-14T20:17:55.896Z,24.10
2018-07-14T20:20:28.458Z,24.00
2018-07-14T20:30:33.923Z,23.80
2018-07-14T20:33:11.427Z,23.70
2018-07-14T20:35:44.468Z,23.60
2018-07-14T20:38:16.887Z,23.60
2018-07-14T20:40:49.576Z,23.60
2018-07-14T20:43:22.434Z,23.50
2018-07-14T20:45:55.137Z,23.50
2018-07-14T20:48:30.299Z,23.40
2018-07-14T20:51:03.225Z,23.40
2018-07-14T20:53:36.960Z,23.40
2018-07-14T20:56:12.955Z,23.50
2018-07-14T20:58:46.023Z,23.40
2018-07-14T21:01:20.142Z,23.30
2018-07-14T21:03:53.212Z,23.30
2018-07-14T21:06:26.220Z,23.30
2018-07-14T21:08:58.632Z,23.30
2018-07-14T21:11:30.913Z,23.40
2018-07-14T21:14:07.145Z,23.40
2018-07-14T21:16:41.447Z,23.30
2018-07-14T21:19:15.636Z,23.40
2018-07-14T21:21:48.825Z,23.30
2018-07-14T21:24:24.055Z,23.30
2018-07-14T21:29:30.956Z,23.20
2018-07-14T21:32:05.227Z,23.20
2018-07-14T21:34:37.496Z,23.20
2018-07-14T21:37:17.621Z,23.20
2018-07-14T21:39:50.897Z,23.20
2018-07-14T21:45:07.602Z,23.10
2018-07-14T21:47:40.773Z,23.10
2018-07-14T21:50:13.600Z,23.10
2018-07-14T21:52:47.222Z,23.10
2018-07-14T21:55:19.722Z,23.10
2018-07-14T21:57:56.924Z,23.10
2018-07-14T22:00:34.732Z,23.00
2018-07-14T22:03:07.869Z,22.90
2018-07-14T22:05:39.980Z,22.90
2018-07-14T22:08:12.248Z,22.90
2018-07-14T22:10:44.496Z,22.80
2018-07-14T22:13:17.757Z,22.80
2018-07-14T22:15:51.638Z,22.80
2018-07-14T22:18:23.731Z,22.80
2018-07-14T22:20:56.089Z,22.80
2018-07-14T22:23:28.655Z,22.80
2018-07-14T22:26:00.972Z,22.80
2018-07-14T22:28:38.125Z,22.70
2018-07-14T22:31:11.754Z,22.70
2018-07-14T22:33:44.268Z,22.70
2018-07-14T22:36:16.699Z,22.60
2018-07-14T22:38:48.911Z,22.60
2018-07-14T22:41:21.166Z,22.60
2018-07-14T22:43:53.125Z,22.50
2018-07-14T22:46:25.452Z,22.50
2018-07-14T22:48:58.456Z,22.50
2018-07-14T22:51:30.956Z,22.50
2018-07-14T22:54:03.217Z,22.40
2018-07-14T22:56:35.475Z,22.40
2018-07-14T22:59:07.524Z,22.40
2018-07-14T23:01:39.907Z,22.30
2018-07-14T23:04:12.510Z,22.40
2018-07-14T23:06:44.496Z,22.30
2018-07-14T23:09:16.543Z,22.40
2018-07-14T23:11:48.479Z,22.40
2018-07-14T23:14:20.638Z,22.40
2018-07-14T23:16:51.875Z,22.50
2018-07-14T23:19:23.159Z,22.40
2018-07-14T23:21:53.760Z,22.40
2018-07-14T23:24:24.435Z,22.40
2018-07-14T23:26:54.941Z,22.50
2018-07-14T23:29:25.448Z,22.50
2018-07-14T23:34:25.751Z,22.40
2018-07-14T23:36:56.623Z,22.30
2018-07-14T23:39:27.235Z,22.20
2018-07-14T23:41:58.240Z,22.20
2018-07-14T23:44:28.815Z,22.10
2018-07-14T23:46:59.680Z,22.00
2018-07-14T23:49:30.396Z,21.90
2018-07-14T23:52:01.106Z,21.90
2018-07-14T23:54:31.791Z,21.90
2018-07-14T23:57:02.497Z,21.90
2018-07-14T23:59:33.175Z,22.00
